Time;durP1;ratioP1;P1;durP2;ratioP2;P2;SDS_P1;SDS_P2;PMS_P1;PMS_P2;Temp;Humidity;BMP_temperature;BMP_pressure;BME280_temperature;BME280_humidity;BME280_pressure;Samples;Min_cycle;Max_cycle;Signal;HPM_P1;HPM_P2
2022/12/25 00:00:38;;;;;;;7.63;1.73;;;11.00;99.90;;;;;;4940523;28;20054;-60
2022/12/25 00:03:05;;;;;;;4.93;1.90;;;10.90;99.90;;;;;;4954211;28;20120;-59
2022/12/25 00:05:32;;;;;;;6.10;1.75;;;10.90;99.90;;;;;;4972015;28;20046;-61
2022/12/25 00:07:59;;;;;;;5.88;1.33;;;10.90;99.90;;;;;;4972024;28;20053;-61
2022/12/25 00:10:26;;;;;;;5.28;1.88;;;10.90;99.90;;;;;;4968549;28;20081;-59
2022/12/25 00:12:53;;;;;;;8.45;1.60;;;10.90;99.90;;;;;;4971253;28;20057;-59
2022/12/25 00:15:20;;;;;;;8.07;1.88;;;10.90;99.90;;;;;;4972993;28;20050;-59
2022/12/25 00:17:46;;;;;;;6.03;1.67;;;10.90;99.90;;;;;;4972621;28;20043;-61
2022/12/25 00:20:13;;;;;;;13.18;3.38;;;11.00;99.90;;;;;;4972230;28;20051;-60
2022/12/25 00:22:40;;;;;;;8.82;2.40;;;11.00;99.90;;;;;;4955190;28;20086;-60
2022/12/25 00:25:07;;;;;;;5.68;1.48;;;11.00;99.90;;;;;;4972755;28;20078;-60
2022/12/25 00:27:36;;;;;;;7.93;1.90;;;11.00;99.90;;;;;;4971887;28;20105;-61
2022/12/25 00:30:06;;;;;;;6.00;1.17;;;11.00;99.90;;;;;;4972985;28;20410;-61
2022/12/25 00:32:36;;;;;;;9.02;1.88;;;11.00;99.90;;;;;;4972791;28;20046;-61
2022/12/25 00:35:04;;;;;;;5.03;1.60;;;11.00;99.90;;;;;;4971283;28;20053;-61
2022/12/25 00:37:30;;;;;;;6.30;2.00;;;11.00;99.90;;;;;;4971988;28;20082;-60
2022/12/25 00:39:57;;;;;;;6.30;1.25;;;11.00;99.90;;;;;;4972527;28;20043;-59
2022/12/25 00:42:25;;;;;;;6.32;1.77;;;10.90;99.90;;;;;;4973638;28;20090;-60
2022/12/25 00:44:52;;;;;;;3.53;1.38;;;10.90;99.90;;;;;;4956729;28;20103;-60
2022/12/25 00:47:19;;;;;;;8.45;1.67;;;10.90;99.90;;;;;;4956303;28;20129;-61
2022/12/25 00:49:46;;;;;;;7.00;1.20;;;10.80;99.90;;;;;;4973653;28;20062;-61
2022/12/25 00:52:13;;;;;;;11.43;1.83;;;10.70;99.90;;;;;;4973648;28;20461;-61
2022/12/25 00:54:40;;;;;;;10.68;2.55;;;10.70;99.90;;;;;;4973074;28;20082;-61
2022/12/25 00:57:07;;;;;;;6.53;3.33;;;10.70;99.90;;;;;;4956620;28;20154;-61
2022/12/25 00:59:34;;;;;;;4.65;1.15;;;10.60;99.90;;;;;;4974352;28;20133;-60
2022/12/25 01:02:22;;;;;;;7.70;1.40;;;10.60;99.90;;;;;;4940356;28;20510;-59
2022/12/25 01:04:49;;;;;;;8.75;1.42;;;10.60;99.90;;;;;;4957841;28;20049;-60
2022/12/25 01:07:16;;;;;;;4.55;1.27;;;10.60;99.90;;;;;;4940245;28;20066;-60
2022/12/25 01:12:33;;;;;;;4.65;1.48;;;10.70;99.90;;;;;;4961120;28;20089;-60
2022/12/25 01:15:00;;;;;;;9.65;1.80;;;10.70;99.90;;;;;;4973825;28;20423;-60
2022/12/25 01:17:26;;;;;;;5.28;1.15;;;10.70;99.90;;;;;;4973458;28;20054;-60
2022/12/25 01:19:53;;;;;;;9.98;1.70;;;10.70;99.90;;;;;;4973541;28;20073;-60
2022/12/25 01:22:20;;;;;;;8.52;1.98;;;10.80;99.90;;;;;;4975039;28;20055;-60
2022/12/25 01:24:47;;;;;;;6.10;1.08;;;10.80;99.90;;;;;;4961233;28;20533;-60
2022/12/25 01:27:13;;;;;;;9.50;1.58;;;10.80;99.90;;;;;;4981014;28;20476;-61
2022/12/25 01:29:40;;;;;;;14.88;2.83;;;10.80;99.90;;;;;;4979110;28;20537;-61
2022/12/25 01:32:07;;;;;;;9.60;1.38;;;10.80;99.90;;;;;;4982647;28;20076;-60
2022/12/25 01:34:34;;;;;;;12.55;2.05;;;10.80;99.90;;;;;;4982424;28;20057;-62
2022/12/25 01:37:01;;;;;;;12.05;1.63;;;10.70;99.90;;;;;;4983004;28;20078;-61
2022/12/25 01:39:28;;;;;;;7.22;1.35;;;10.70;99.90;;;;;;4962955;28;20085;-61
2022/12/25 01:41:55;;;;;;;5.38;1.20;;;10.70;99.90;;;;;;4982460;28;20538;-60
2022/12/25 01:44:34;;;;;;;4.82;1.33;;;10.70;99.90;;;;;;4982838;28;20482;-60
2022/12/25 01:47:04;;;;;;;5.13;1.63;;;10.70;99.90;;;;;;4984051;28;20053;-60
2022/12/25 01:49:31;;;;;;;6.40;1.30;;;10.60;99.90;;;;;;4965416;28;20153;-60
2022/12/25 01:52:20;;;;;;;8.77;2.83;;;10.60;99.90;;;;;;4962862;28;20086;-60
2022/12/25 01:54:55;;;;;;;11.90;2.45;;;10.60;99.90;;;;;;4980712;28;20130;-60
2022/12/25 01:57:27;;;;;;;8.38;1.40;;;10.60;99.90;;;;;;4945144;28;20129;-60
2022/12/25 01:59:55;;;;;;;7.75;1.60;;;10.60;99.90;;;;;;4962025;28;20051;-60
2022/12/25 02:02:23;;;;;;;4.97;1.73;;;10.60;99.90;;;;;;4961162;28;20063;-60
2022/12/25 02:04:53;;;;;;;5.93;1.50;;;10.60;99.90;;;;;;4978049;28;20049;-60
2022/12/25 02:07:21;;;;;;;7.68;1.42;;;10.60;99.90;;;;;;4961570;28;20130;-60
2022/12/25 02:09:48;;;;;;;2.47;1.00;;;10.60;99.90;;;;;;4978604;28;20089;-60
2022/12/25 02:12:25;;;;;;;7.28;1.50;;;10.60;99.90;;;;;;4977659;28;20106;-60
2022/12/25 02:14:54;;;;;;;10.65;2.63;;;10.60;99.90;;;;;;4958090;29;20062;-59
2022/12/25 02:18:00;;;;;;;5.05;1.88;;;10.60;99.90;;;;;;4961589;28;20123;-59
2022/12/25 02:20:50;;;;;;;8.15;1.90;;;10.60;99.90;;;;;;4978058;28;20134;-59
2022/12/25 02:23:33;;;;;;;6.18;2.17;;;10.60;99.90;;;;;;4960717;28;20053;-59
2022/12/25 02:26:28;;;;;;;5.95;1.30;;;10.60;99.90;;;;;;4960719;28;20914;-61
2022/12/25 02:28:58;;;;;;;3.60;0.90;;;10.70;99.90;;;;;;4966164;28;20050;-60
2022/12/25 02:31:29;;;;;;;9.50;1.60;;;10.70;99.90;;;;;;4978295;28;20143;-60
2022/12/25 02:34:08;;;;;;;9.20;1.55;;;10.70;99.90;;;;;;4960866;28;20043;-61
2022/12/25 02:36:49;;;;;;;7.85;1.40;;;10.70;99.90;;;;;;4961022;28;20155;-60
2022/12/25 02:40:08;;;;;;;9.40;1.38;;;10.60;99.90;;;;;;4942759;28;20047;-60
2022/12/25 03:07:44;;;;;;;6.07;1.23;;;10.70;99.90;;;;;;4962797;28;20082;-60
2022/12/25 03:13:02;;;;;;;13.38;1.58;;;10.70;99.90;;;;;;4948376;28;20150;-60
2022/12/25 03:18:16;;;;;;;4.95;1.42;;;10.80;99.90;;;;;;4949190;28;20410;-60
2022/12/25 03:29:01;;;;;;;6.55;1.52;;;10.80;99.90;;;;;;4977519;28;20070;-60
2022/12/25 03:31:32;;;;;;;8.27;3.20;;;10.80;99.90;;;;;;4976414;28;20141;-60
2022/12/25 03:37:47;;;;;;;10.10;1.60;;;10.80;99.90;;;;;;4965266;28;20460;-59
2022/12/25 04:36:18;;;;;;;7.82;1.60;;;10.90;99.90;;;;;;4974880;28;20453;-60
2022/12/25 04:38:45;;;;;;;5.40;1.60;;;10.90;99.90;;;;;;4975497;28;20172;-60
2022/12/25 04:41:12;;;;;;;7.43;1.40;;;10.90;99.90;;;;;;4974461;28;20097;-60
2022/12/25 04:43:39;;;;;;;11.65;1.85;;;10.90;99.90;;;;;;4958111;28;20129;-61
2022/12/25 04:46:05;;;;;;;7.53;1.73;;;11.00;99.90;;;;;;4974604;28;20467;-60
2022/12/25 04:48:33;;;;;;;8.50;1.73;;;10.90;99.90;;;;;;4974934;28;20515;-60
2022/12/25 04:51:20;;;;;;;7.38;1.13;;;10.90;99.90;;;;;;4957718;28;20138;-59
2022/12/25 04:53:47;;;;;;;10.75;1.25;;;10.90;99.90;;;;;;4955279;29;20082;-59
2022/12/25 04:56:14;;;;;;;10.68;1.65;;;10.90;99.90;;;;;;4958004;28;20489;-60
2022/12/25 04:58:41;;;;;;;6.10;2.63;;;11.00;99.90;;;;;;4974763;28;20066;-59
2022/12/25 05:01:08;;;;;;;15.32;2.05;;;10.90;99.90;;;;;;4973974;28;20138;-60
2022/12/25 05:03:35;;;;;;;12.40;2.53;;;10.90;99.90;;;;;;4956724;28;20054;-60
2022/12/25 05:06:02;;;;;;;9.63;2.63;;;10.90;99.90;;;;;;4957219;28;20067;-61
2022/12/25 05:08:29;;;;;;;12.07;1.98;;;10.90;99.90;;;;;;4956680;28;20046;-60
2022/12/25 05:10:56;;;;;;;19.30;2.20;;;10.90;99.90;;;;;;4942036;28;20506;-60
2022/12/25 05:13:23;;;;;;;6.57;1.48;;;10.90;99.90;;;;;;4973912;28;20050;-59
2022/12/25 05:15:50;;;;;;;13.13;1.92;;;11.00;99.90;;;;;;4974894;28;20058;-60
2022/12/25 05:18:17;;;;;;;10.80;1.58;;;10.90;99.90;;;;;;4957782;28;20058;-58
2022/12/25 05:20:51;;;;;;;6.93;2.13;;;10.90;99.90;;;;;;4975835;28;20054;-59
2022/12/25 05:23:17;;;;;;;;;;;10.90;99.90;;;;;;4958580;28;20107;-59
2022/12/25 05:25:44;;;;;;;5.75;1.70;;;10.90;99.90;;;;;;4975110;28;19969;-59
2022/12/25 05:28:11;;;;;;;5.97;1.40;;;10.90;99.90;;;;;;4974486;28;20046;-60
2022/12/25 05:30:39;;;;;;;14.00;2.28;;;10.90;99.90;;;;;;4958902;28;20078;-59
2022/12/25 05:33:06;;;;;;;9.00;1.73;;;10.90;99.90;;;;;;4977186;28;20062;-60
2022/12/25 05:35:35;;;;;;;9.88;1.98;;;10.90;99.90;;;;;;4957706;28;20050;-59
2022/12/25 05:38:02;;;;;;;12.73;1.77;;;10.90;99.90;;;;;;4974530;28;20046;-59
2022/12/25 05:40:29;;;;;;;11.82;1.80;;;10.90;99.90;;;;;;4974660;28;20046;-59
2022/12/25 05:42:56;;;;;;;6.40;1.27;;;10.90;99.90;;;;;;4974484;28;20063;-60
2022/12/25 05:45:22;;;;;;;7.32;1.27;;;11.00;99.90;;;;;;4975162;28;20046;-59
2022/12/25 05:47:49;;;;;;;9.32;1.80;;;10.90;99.90;;;;;;4974922;28;20047;-59
2022/12/25 05:50:16;;;;;;;11.63;2.00;;;11.00;99.90;;;;;;4941495;28;20142;-60
2022/12/25 05:52:43;;;;;;;9.23;1.85;;;11.00;99.90;;;;;;4958053;28;20490;-59
2022/12/25 05:55:09;;;;;;;5.57;1.17;;;11.00;99.90;;;;;;4974847;28;20318;-59
2022/12/25 05:57:36;;;;;;;7.88;1.67;;;11.00;99.90;;;;;;4957211;28;20137;-59
2022/12/25 06:00:04;;;;;;;8.38;2.00;;;11.00;99.90;;;;;;4974445;28;20067;-59
2022/12/25 06:02:31;;;;;;;9.88;1.63;;;11.00;99.90;;;;;;4957225;28;20078;-59
2022/12/25 06:04:58;;;;;;;7.88;1.65;;;11.00;99.90;;;;;;4957207;28;20494;-59
2022/12/25 06:07:25;;;;;;;8.50;1.92;;;11.00;99.90;;;;;;4973938;28;20074;-60
2022/12/25 06:09:52;;;;;;;14.38;2.08;;;11.00;99.90;;;;;;4975373;28;20063;-60
2022/12/25 06:12:18;;;;;;;7.53;1.52;;;11.10;99.90;;;;;;4977906;28;20075;-59
2022/12/25 06:14:45;;;;;;;11.43;3.47;;;11.00;99.90;;;;;;4960778;28;20046;-62
2022/12/25 06:17:12;;;;;;;9.82;2.47;;;11.00;99.90;;;;;;4961165;28;20081;-61
2022/12/25 06:19:40;;;;;;;4.38;1.60;;;11.00;99.90;;;;;;4960339;28;20075;-59
2022/12/25 06:22:07;;;;;;;10.30;2.00;;;10.90;99.90;;;;;;4961203;28;20140;-59
2022/12/25 06:24:34;;;;;;;7.18;1.40;;;10.90;99.90;;;;;;4978700;28;20423;-59
2022/12/25 06:27:01;;;;;;;8.15;1.45;;;10.90;99.90;;;;;;4961105;28;20078;-59
2022/12/25 06:29:28;;;;;;;9.30;1.70;;;10.90;99.90;;;;;;4978379;28;20050;-60
2022/12/25 06:31:56;;;;;;;10.07;1.63;;;10.90;99.90;;;;;;4977857;28;20057;-60
2022/12/25 06:34:23;;;;;;;11.95;2.08;;;10.90;99.90;;;;;;4960724;28;20387;-60
2022/12/25 06:36:50;;;;;;;10.13;1.60;;;10.90;99.90;;;;;;4960522;28;20051;-59
2022/12/25 06:39:16;;;;;;;11.82;2.78;;;10.90;99.90;;;;;;4977911;28;20534;-59
2022/12/25 06:41:43;;;;;;;14.05;2.33;;;10.90;99.90;;;;;;4976661;28;20154;-60
2022/12/25 06:44:10;;;;;;;9.23;1.67;;;10.90;99.90;;;;;;4960582;28;20105;-59
2022/12/25 06:46:37;;;;;;;14.98;2.60;;;10.90;99.90;;;;;;4978120;28;20057;-59
2022/12/25 06:49:05;;;;;;;14.43;2.53;;;10.90;99.90;;;;;;4977841;28;20097;-59
2022/12/25 06:51:33;;;;;;;9.32;1.90;;;10.90;99.90;;;;;;4977876;28;20078;-60
2022/12/25 06:54:03;;;;;;;9.85;2.03;;;10.90;99.90;;;;;;4977839;28;20061;-59
2022/12/25 06:56:30;;;;;;;9.88;1.95;;;10.90;99.90;;;;;;4977180;28;20085;-60
2022/12/25 06:59:07;;;;;;;5.47;2.40;;;10.80;99.90;;;;;;4960325;28;20058;-60
2022/12/25 07:01:37;;;;;;;13.10;2.67;;;10.80;99.90;;;;;;4978055;28;20054;-60
2022/12/25 07:04:05;;;;;;;9.65;1.52;;;10.80;99.90;;;;;;4960395;28;20415;-59
2022/12/25 07:06:32;;;;;;;6.28;1.65;;;10.80;99.90;;;;;;4959973;28;20125;-60
2022/12/25 07:08:59;;;;;;;11.85;2.50;;;10.80;99.90;;;;;;4960194;28;20293;-60
2022/12/25 07:11:25;;;;;;;9.10;1.65;;;10.80;99.90;;;;;;4977545;28;20115;-60
2022/12/25 07:13:52;;;;;;;10.55;1.52;;;10.90;99.90;;;;;;4978248;28;20051;-61
2022/12/25 07:16:19;;;;;;;11.77;2.25;;;10.80;99.90;;;;;;4977618;28;20108;-60
2022/12/25 07:18:46;;;;;;;9.02;1.60;;;10.80;99.90;;;;;;4977831;28;20047;-59
2022/12/25 07:21:14;;;;;;;9.70;2.10;;;10.80;99.90;;;;;;4976342;28;20059;-59
2022/12/25 07:23:41;;;;;;;6.90;1.65;;;10.80;99.90;;;;;;4976420;28;20043;-60
2022/12/25 07:26:09;;;;;;;13.98;1.77;;;10.80;99.90;;;;;;4976105;28;20074;-59
2022/12/25 07:28:35;;;;;;;8.93;1.60;;;10.80;99.90;;;;;;4976512;28;20051;-59
2022/12/25 07:31:04;;;;;;;11.13;1.88;;;10.80;99.90;;;;;;4975941;28;20047;-60
2022/12/25 07:33:30;;;;;;;7.47;1.67;;;10.90;99.90;;;;;;4975426;28;20054;-60
2022/12/25 07:35:57;;;;;;;9.45;1.83;;;10.90;99.90;;;;;;4976396;28;20081;-60
2022/12/25 07:38:24;;;;;;;12.50;1.92;;;10.90;99.90;;;;;;4977343;28;20531;-59
2022/12/25 07:40:51;;;;;;;13.25;2.08;;;10.90;99.90;;;;;;4959403;28;20576;-60
2022/12/25 07:43:18;;;;;;;8.43;1.65;;;10.90;99.90;;;;;;4958786;28;20214;-60
2022/12/25 07:45:44;;;;;;;10.88;2.63;;;10.90;99.90;;;;;;4976124;28;20057;-59
2022/12/25 07:48:11;;;;;;;16.52;1.95;;;10.90;99.90;;;;;;4975883;28;20104;-60
2022/12/25 07:50:42;;;;;;;17.05;1.73;;;10.90;99.90;;;;;;4959161;28;20051;-59
2022/12/25 07:53:09;;;;;;;10.55;2.33;;;11.00;99.90;;;;;;4976017;28;20071;-60
2022/12/25 07:55:36;;;;;;;11.45;1.67;;;11.00;99.90;;;;;;4976170;28;20093;-60
2022/12/25 07:58:03;;;;;;;10.48;1.60;;;11.00;99.90;;;;;;4957951;28;20493;-60
2022/12/25 08:00:32;;;;;;;9.23;1.35;;;11.00;99.90;;;;;;4975614;28;20312;-60
2022/12/25 08:02:59;;;;;;;11.20;1.80;;;11.00;99.90;;;;;;4974601;28;20130;-60
2022/12/25 08:05:26;;;;;;;11.77;2.20;;;11.00;99.90;;;;;;4975370;28;20050;-60
2022/12/25 08:07:53;;;;;;;10.18;2.35;;;11.00;99.90;;;;;;4976289;28;20062;-60
2022/12/25 08:10:23;;;;;;;9.23;1.88;;;11.00;99.90;;;;;;4975721;28;20049;-60
2022/12/25 08:12:50;;;;;;;8.68;2.42;;;11.00;99.90;;;;;;4942378;28;20113;-60
2022/12/25 08:15:17;;;;;;;14.45;2.83;;;11.00;99.90;;;;;;4957917;28;20046;-60
2022/12/25 08:17:45;;;;;;;13.00;1.50;;;11.00;99.90;;;;;;4957508;28;20050;-60
2022/12/25 08:20:12;;;;;;;12.00;1.95;;;11.00;99.90;;;;;;4975875;28;20082;-59
2022/12/25 08:22:39;;;;;;;12.38;2.05;;;11.00;99.90;;;;;;4957756;28;20047;-59
2022/12/25 08:25:06;;;;;;;14.55;2.58;;;11.00;99.90;;;;;;4975810;28;20130;-59
2022/12/25 08:27:33;;;;;;;12.25;2.00;;;11.00;99.90;;;;;;4974916;28;20392;-60
2022/12/25 08:29:59;;;;;;;5.15;1.70;;;11.00;99.90;;;;;;4959178;28;20086;-59
2022/12/25 08:32:26;;;;;;;11.70;2.17;;;11.00;99.90;;;;;;4975449;28;20086;-60
2022/12/25 08:34:53;;;;;;;12.48;2.22;;;11.00;99.90;;;;;;4958349;28;20074;-59
2022/12/25 08:37:20;;;;;;;8.57;1.83;;;11.00;99.90;;;;;;4958599;28;20086;-59
2022/12/25 08:39:46;;;;;;;10.32;1.77;;;11.00;99.90;;;;;;4974992;28;20050;-60
2022/12/25 08:42:14;;;;;;;5.03;1.35;;;11.00;99.90;;;;;;4975683;28;20478;-59
2022/12/25 08:44:40;;;;;;;5.82;1.50;;;11.00;99.90;;;;;;4959002;28;20050;-60
2022/12/25 08:47:07;;;;;;;14.98;1.63;;;10.90;99.90;;;;;;4976323;28;20057;-59
2022/12/25 08:49:35;;;;;;;11.05;1.85;;;10.90;99.90;;;;;;4976847;28;20050;-61
2022/12/25 08:52:02;;;;;;;18.08;1.98;;;10.90;99.90;;;;;;4960212;28;20055;-60
2022/12/25 08:54:31;;;;;;;13.57;2.25;;;10.90;99.90;;;;;;4956752;28;20433;-60
2022/12/25 08:56:58;;;;;;;21.17;2.83;;;10.90;99.90;;;;;;4949118;28;20082;-59
2022/12/25 08:59:28;;;;;;;10.05;1.58;;;10.90;99.90;;;;;;4974076;28;20090;-61
2022/12/25 09:01:55;;;;;;;10.23;1.55;;;10.90;99.90;;;;;;4959351;28;20074;-60
2022/12/25 09:04:22;;;;;;;13.38;1.90;;;10.90;99.90;;;;;;4978638;28;20051;-61
2022/12/25 09:06:49;;;;;;;5.40;1.80;;;10.90;99.90;;;;;;4964140;28;20085;-60
2022/12/25 09:09:16;;;;;;;13.68;1.75;;;10.90;99.90;;;;;;4980065;28;20054;-60
2022/12/25 09:11:43;;;;;;;8.48;1.77;;;11.00;99.90;;;;;;4961512;28;20474;-61
2022/12/25 09:14:12;;;;;;;8.88;1.40;;;11.00;99.90;;;;;;4961852;28;20042;-60
2022/12/25 09:16:39;;;;;;;3.95;1.08;;;11.00;99.90;;;;;;4946446;28;20102;-60
2022/12/25 09:19:06;;;;;;;11.40;1.35;;;11.00;99.90;;;;;;4961766;28;20150;-60
2022/12/25 09:21:32;;;;;;;7.57;1.65;;;11.00;99.90;;;;;;4960934;28;20262;-59
2022/12/25 09:24:00;;;;;;;8.55;1.35;;;11.00;99.90;;;;;;4961084;28;20169;-59
2022/12/25 09:26:27;;;;;;;9.82;1.92;;;11.10;99.90;;;;;;4960145;28;20141;-60
2022/12/25 09:28:54;;;;;;;10.40;1.73;;;11.10;99.90;;;;;;4978248;28;20129;-60
2022/12/25 09:31:21;;;;;;;6.15;1.33;;;11.10;99.90;;;;;;4978280;28;20042;-60
2022/12/25 09:33:49;;;;;;;9.27;1.80;;;11.00;99.90;;;;;;4978235;28;20517;-60
2022/12/25 09:36:16;;;;;;;10.73;3.17;;;11.00;99.90;;;;;;4976224;28;20051;-59
2022/12/25 09:38:42;;;;;;;11.00;2.17;;;11.10;99.90;;;;;;4974633;28;20047;-60
2022/12/25 09:41:16;;;;;;;10.88;3.22;;;11.00;99.90;;;;;;4978885;28;20101;-60
2022/12/25 09:43:58;;;;;;;6.20;2.00;;;11.10;99.90;;;;;;4945661;28;20059;-59
2022/12/25 09:46:25;;;;;;;11.68;1.70;;;11.10;99.90;;;;;;4968364;28;20039;-59
2022/12/25 09:49:06;;;;;;;6.75;1.77;;;11.10;99.90;;;;;;4970075;28;20047;-59
2022/12/25 09:51:33;;;;;;;12.02;1.65;;;11.10;99.90;;;;;;4985926;28;20066;-60
2022/12/25 09:54:11;;;;;;;5.75;1.48;;;11.10;99.90;;;;;;4953996;28;20140;-60
2022/12/25 09:56:37;;;;;;;7.28;1.40;;;11.10;99.90;;;;;;4985571;28;20058;-59
2022/12/25 09:59:22;;;;;;;6.07;1.60;;;11.10;99.90;;;;;;4991978;28;20115;-60
2022/12/25 10:01:51;;;;;;;11.10;1.58;;;11.10;99.90;;;;;;4959075;28;20061;-58
2022/12/25 10:04:37;;;;;;;10.90;2.63;;;11.10;99.90;;;;;;4979680;28;20351;-63
2022/12/25 10:07:25;;;;;;;5.35;1.30;;;11.20;99.90;;;;;;4972081;28;20427;-61
2022/12/25 10:10:14;;;;;;;13.10;1.92;;;11.20;99.90;;;;;;4956843;28;20082;-61
2022/12/25 10:12:51;;;;;;;5.63;1.58;;;11.20;99.90;;;;;;4986604;28;20126;-62
2022/12/25 10:15:30;;;;;;;6.03;1.30;;;11.30;99.90;;;;;;4630728;28;10000605;-61
2022/12/25 10:18:03;;;;;;;5.97;1.77;;;11.30;99.90;;;;;;4989825;28;20043;-62
2022/12/25 10:20:39;;;;;;;8.18;1.67;;;11.30;99.90;;;;;;4991392;28;20054;-62
2022/12/25 10:23:11;;;;;;;8.13;1.80;;;11.30;99.90;;;;;;4990908;28;20106;-62
2022/12/25 10:25:38;;;;;;;6.93;1.42;;;11.40;99.90;;;;;;4973432;28;20094;-59
2022/12/25 10:28:13;;;;;;;7.13;1.40;;;11.40;99.90;;;;;;4964845;28;20145;-60
2022/12/25 10:30:44;;;;;;;11.68;4.45;;;11.40;99.90;;;;;;4965374;28;20058;-59
2022/12/25 10:33:12;;;;;;;7.75;2.30;;;11.50;99.90;;;;;;4965172;28;20155;-60
2022/12/25 10:35:43;;;;;;;4.95;1.10;;;11.40;99.90;;;;;;4948234;28;20283;-59
2022/12/25 10:38:14;;;;;;;7.97;1.88;;;11.40;99.90;;;;;;4961653;28;20121;-60
2022/12/25 10:41:02;;;;;;;4.70;1.38;;;11.40;99.90;;;;;;4962249;28;20051;-60
2022/12/25 10:43:41;;;;;;;2.53;1.30;;;11.40;99.90;;;;;;4946328;28;20077;-60
2022/12/25 10:46:12;;;;;;;12.40;2.30;;;11.40;99.90;;;;;;4951822;28;20047;-59
2022/12/25 10:48:52;;;;;;;9.05;1.90;;;11.50;99.90;;;;;;4949326;28;20038;-58
2022/12/25 10:51:29;;;;;;;8.88;2.40;;;11.50;99.90;;;;;;4981662;28;20054;-61
2022/12/25 10:53:56;;;;;;;8.32;2.85;;;11.50;99.90;;;;;;4980985;28;20108;-60
2022/12/25 10:56:22;;;;;;;11.20;2.60;;;11.50;99.90;;;;;;4981016;28;20149;-60
2022/12/25 10:58:49;;;;;;;10.00;2.17;;;11.50;99.90;;;;;;4981932;28;20122;-60
2022/12/25 11:01:16;;;;;;;7.45;2.30;;;11.50;99.90;;;;;;4980524;28;20114;-59
2022/12/25 11:03:44;;;;;;;7.70;2.13;;;11.50;99.90;;;;;;4962575;28;20086;-60
2022/12/25 11:06:22;;;;;;;6.97;2.35;;;11.60;99.90;;;;;;4936710;28;20158;-59
2022/12/25 11:08:59;;;;;;;11.60;2.75;;;11.60;99.90;;;;;;4962886;28;20050;-59
2022/12/25 11:11:27;;;;;;;8.77;1.80;;;11.60;99.90;;;;;;4971149;28;20169;-59
2022/12/25 11:13:58;;;;;;;4.80;1.85;;;11.60;99.90;;;;;;4964249;28;20042;-62
2022/12/25 11:16:29;;;;;;;9.98;2.25;;;11.60;99.90;;;;;;4948871;28;20057;-60
2022/12/25 11:18:56;;;;;;;7.93;1.83;;;11.60;99.90;;;;;;4965142;28;20047;-59
2022/12/25 11:21:33;;;;;;;10.18;2.63;;;11.60;99.90;;;;;;4947830;28;20513;-59
2022/12/25 11:24:02;;;;;;;8.90;2.33;;;11.60;99.90;;;;;;4947837;28;20408;-60
2022/12/25 11:26:34;;;;;;;4.15;1.55;;;11.60;99.90;;;;;;4979698;28;20051;-61
2022/12/25 11:29:01;;;;;;;4.38;1.90;;;11.70;99.90;;;;;;4981245;28;20070;-60
2022/12/25 11:31:39;;;;;;;6.45;1.75;;;11.70;99.90;;;;;;4963346;28;20078;-59
2022/12/25 11:34:23;;;;;;;8.50;2.20;;;11.70;99.90;;;;;;4963015;28;20078;-60
2022/12/25 11:36:51;;;;;;;6.00;2.25;;;11.80;99.90;;;;;;4945636;28;20054;-60
2022/12/25 11:39:35;;;;;;;8.50;2.38;;;11.90;99.90;;;;;;4963428;28;20422;-61
2022/12/25 11:42:12;;;;;;;6.93;1.70;;;12.00;99.90;;;;;;4977633;28;20054;-60
2022/12/25 11:45:08;;;;;;;4.82;1.65;;;12.00;99.90;;;;;;4949197;28;20082;-60
2022/12/25 11:47:54;;;;;;;6.53;1.50;;;12.10;99.90;;;;;;4969956;28;20081;-61
2022/12/25 11:50:40;;;;;;;2.80;1.10;;;12.10;99.90;;;;;;4979425;28;20101;-60
2022/12/25 11:53:21;;;;;;;5.13;1.35;;;12.20;99.90;;;;;;4961957;28;20061;-59
2022/12/25 11:55:57;;;;;;;3.20;1.23;;;12.20;99.90;;;;;;4969623;28;20054;-61
2022/12/25 11:58:48;;;;;;;8.88;1.58;;;12.20;99.90;;;;;;4946053;28;20118;-60
2022/12/25 12:01:40;;;;;;;6.97;1.60;;;12.30;99.90;;;;;;4978785;28;20055;-61
2022/12/25 12:04:25;;;;;;;4.85;1.48;;;12.30;99.90;;;;;;4963408;28;20051;-60
2022/12/25 12:07:34;;;;;;;5.53;1.10;;;12.30;99.90;;;;;;4950400;28;20561;-60
2022/12/25 12:10:14;;;;;;;6.85;1.10;;;12.30;99.90;;;;;;4918924;29;20428;-60
2022/12/25 12:13:02;;;;;;;4.72;1.40;;;12.30;99.90;;;;;;4973280;28;20050;-61
2022/12/25 12:15:36;;;;;;;3.72;1.33;;;12.30;99.90;;;;;;4997212;28;20050;-61
2022/12/25 12:18:17;;;;;;;;;;;12.40;99.90;;;;;;4946700;28;20632;-59
2022/12/25 12:20:44;;;;;;;4.30;1.15;;;12.40;99.90;;;;;;4961864;28;19957;-60
2022/12/25 12:23:14;;;;;;;2.38;0.90;;;12.40;99.90;;;;;;4946631;28;20122;-61
2022/12/25 12:25:41;;;;;;;6.38;1.70;;;12.40;99.90;;;;;;4946650;28;20055;-59
2022/12/25 12:28:18;;;;;;;4.57;0.80;;;12.40;99.90;;;;;;4945436;28;20107;-59
2022/12/25 12:30:55;;;;;;;3.58;1.50;;;12.40;99.90;;;;;;4980110;28;20541;-61
2022/12/25 12:33:22;;;;;;;7.13;1.38;;;12.40;99.90;;;;;;4947034;28;20043;-61
2022/12/25 12:35:49;;;;;;;6.15;1.55;;;12.40;99.90;;;;;;4947139;28;20054;-60
2022/12/25 12:38:16;;;;;;;5.55;1.20;;;12.40;99.90;;;;;;4946173;28;20046;-60
2022/12/25 12:41:00;;;;;;;6.68;1.00;;;12.40;99.90;;;;;;4962047;28;20078;-61
2022/12/25 12:43:34;;;;;;;7.85;1.45;;;12.40;99.90;;;;;;4978473;28;20050;-61
2022/12/25 12:46:14;;;;;;;5.72;1.33;;;12.40;99.90;;;;;;4961838;28;20057;-59
2022/12/25 12:48:43;;;;;;;4.47;1.70;;;12.40;99.90;;;;;;4945625;28;20400;-59
2022/12/25 12:51:30;;;;;;;10.05;2.22;;;12.40;99.90;;;;;;4977783;28;20054;-60
2022/12/25 12:54:25;;;;;;;7.05;1.40;;;12.30;99.90;;;;;;4960687;28;20055;-59
2022/12/25 12:57:01;;;;;;;;;;;12.30;99.90;;;;;;4980548;28;20050;-59
2022/12/25 12:59:46;;;;;;;6.88;1.60;;;12.20;99.90;;;;;;4962125;28;20289;-61
2022/12/25 13:02:41;;;;;;;6.68;1.30;;;12.20;99.90;;;;;;4965254;28;20061;-61
2022/12/25 13:05:40;;;;;;;5.13;0.70;;;12.10;99.90;;;;;;4972015;28;20078;-60
2022/12/25 13:08:19;;;;;;;12.88;2.22;;;12.10;99.90;;;;;;4964964;28;20046;-59
2022/12/25 13:10:48;;;;;;;7.68;1.85;;;12.00;99.90;;;;;;4965075;28;20042;-60
2022/12/25 13:13:24;;;;;;;6.00;1.42;;;12.00;99.90;;;;;;4950085;28;20439;-60
2022/12/25 13:15:51;;;;;;;3.97;1.20;;;12.00;99.90;;;;;;4950544;28;20047;-61
2022/12/25 13:18:18;;;;;;;4.97;1.45;;;12.00;99.90;;;;;;4948751;28;20098;-60
2022/12/25 13:20:58;;;;;;;6.35;1.13;;;12.10;99.90;;;;;;4966236;28;20294;-61
2022/12/25 13:23:37;;;;;;;6.85;1.38;;;12.00;99.90;;;;;;4952892;28;20649;-61
2022/12/25 13:26:16;;;;;;;3.63;1.05;;;12.00;99.90;;;;;;4967817;28;20046;-61
2022/12/25 13:28:45;;;;;;;4.35;1.33;;;12.00;99.90;;;;;;4970616;28;20071;-60
2022/12/25 13:31:12;;;;;;;6.03;1.23;;;12.10;99.90;;;;;;4969405;28;20055;-60
2022/12/25 13:33:40;;;;;;;10.13;1.60;;;12.00;99.90;;;;;;4986549;28;20106;-60
2022/12/25 13:36:11;;;;;;;7.90;1.27;;;12.00;99.90;;;;;;4987853;28;20054;-61
2022/12/25 13:38:46;;;;;;;5.68;1.10;;;12.00;99.90;;;;;;4970141;28;20034;-61
2022/12/25 13:44:19;;;;;;;4.23;1.27;;;12.00;99.90;;;;;;4987293;28;20086;-60
2022/12/25 13:46:46;;;;;;;5.00;1.48;;;12.00;99.90;;;;;;4969732;28;20051;-61
2022/12/25 13:49:15;;;;;;;4.60;1.23;;;12.00;99.90;;;;;;4969127;28;20105;-60
2022/12/25 13:51:42;;;;;;;4.60;1.20;;;11.90;99.90;;;;;;4958701;28;20151;-60
2022/12/25 13:54:11;;;;;;;6.03;1.20;;;11.90;99.90;;;;;;4969314;28;20204;-60
2022/12/25 13:56:53;;;;;;;5.45;1.10;;;11.90;99.90;;;;;;4987538;28;20190;-60
2022/12/25 13:59:21;;;;;;;4.40;1.38;;;11.80;99.90;;;;;;4954780;28;20098;-61
2022/12/25 14:01:48;;;;;;;4.07;1.13;;;11.80;99.90;;;;;;4987641;28;20058;-60
2022/12/25 14:04:18;;;;;;;6.40;1.13;;;11.80;99.90;;;;;;4969940;28;20093;-59
2022/12/25 14:06:44;;;;;;;8.15;1.48;;;11.80;99.90;;;;;;4951902;28;20153;-59
2022/12/25 14:09:11;;;;;;;12.82;2.35;;;11.70;99.90;;;;;;4970894;28;20107;-59
2022/12/25 14:11:39;;;;;;;5.95;1.10;;;11.70;99.90;;;;;;4988075;28;20105;-59
2022/12/25 14:14:20;;;;;;;3.05;0.90;;;11.70;99.90;;;;;;4987311;28;20081;-60
2022/12/25 14:16:48;;;;;;;7.75;1.30;;;11.70;99.90;;;;;;4972192;28;20050;-61
2022/12/25 14:19:25;;;;;;;8.27;1.63;;;11.70;99.90;;;;;;4954639;28;20047;-60
2022/12/25 14:22:00;;;;;;;1.45;0.70;;;11.70;99.90;;;;;;4985607;28;20054;-62
2022/12/25 14:24:27;;;;;;;4.15;1.15;;;11.70;99.90;;;;;;4954369;28;20050;-60
2022/12/25 14:27:05;;;;;;;5.53;1.45;;;11.70;99.90;;;;;;4986842;28;20059;-60
2022/12/25 14:29:40;;;;;;;5.85;1.17;;;11.60;99.90;;;;;;4955694;28;20051;-60
2022/12/25 14:32:09;;;;;;;3.38;1.05;;;11.70;99.90;;;;;;4953626;28;20054;-61
2022/12/25 14:34:36;;;;;;;4.93;1.63;;;11.70;99.90;;;;;;4970979;28;20050;-61
2022/12/25 14:37:03;;;;;;;6.85;2.30;;;11.70;99.90;;;;;;4954533;28;20114;-60
2022/12/25 14:39:33;;;;;;;2.35;0.95;;;11.70;99.90;;;;;;4988234;28;20090;-61
2022/12/25 14:42:30;;;;;;;2.63;1.13;;;11.70;99.90;;;;;;4987331;28;20070;-60
2022/12/25 14:45:02;;;;;;;3.13;1.15;;;11.70;99.90;;;;;;4939510;29;20051;-61
2022/12/25 14:47:29;;;;;;;2.55;0.80;;;11.70;99.90;;;;;;4968296;28;20470;-59
2022/12/25 14:49:57;;;;;;;4.07;1.00;;;11.60;99.90;;;;;;4955759;28;20050;-59